• Join FlightAware (Why Join?)
  • Login
  • US Flag 
09:35AM EDT


 

Airport Tracker/Info


-or-


 

Live Flight TrackerFlight Track Log ✈ DAL3672 ✈ 15-Apr-2013 ✈ KDTW - KMHT

Flight Track Log - Related Links

Times and Time Zones

All times are in EDT time to prevent confusion due to time zone crossing. See the DAL3672 flight status page for this flight to view local times or setup timezone preferences in your user account.

Time Position Orientation Groundspeed Altitude Reporting Facility
EDT Latitude Longitude Course Direction KTS MPH feet Rate Location/Type
10:18AM 42.2036 -83.3556 178° South 143 165 1,200  Level Cleveland Center
10:18AM 42.1850 -83.3547 178° South 138 159 2,300 1,920 Climbing Cleveland Center
10:19AM 42.1394 -83.3442 170° South 190 219 4,200 1,920 Climbing Cleveland Center
10:20AM 42.0814 -83.3278 168° South 241 277 6,300 2,520 Climbing Cleveland Center
10:21AM 42.0750 -83.2436 96° East 288 331 9,100 2,280 Climbing Cleveland Center
10:22AM 42.1106 -83.1442 64° Northeast 323 372 10,700 1,560 Climbing Cleveland Center
10:23AM 42.1547 -83.0283 63° Northeast 323 372 12,200 1,560 Climbing Cleveland Center
10:24AM 42.1992 -82.9067 64° Northeast 337 388 13,900 1,620 Climbing Cleveland Center
10:25AM 42.2475 -82.7794 63° Northeast 357 411 15,500 1,500 Climbing Cleveland Center
10:26AM 42.2958 -82.6492 63° Northeast 370 426 17,000 1,440 Climbing Cleveland Center
10:27AM 42.3439 -82.5131 64° Northeast 388 447 18,400 1,320 Climbing Cleveland Center
10:28AM 42.3631 -82.3647 80° East 393 452 19,700 1,260 Climbing Cleveland Center
10:29AM 42.3569 -82.2100 93° East 393 452 21,000 1,200 Climbing Cleveland Center
10:30AM 42.3508 -82.0525 93° East 415 478 22,100 960 Climbing Cleveland Center
10:31AM 42.3444 -81.8894 93° East 425 489 23,000 840 Climbing Cleveland Center
10:32AM 42.3375 -81.7433 94° East 425 489 23,800 840 Climbing Cleveland Center
10:33AM 42.3308 -81.5831 93° East 425 489 24,700 600 Climbing Cleveland Center
10:34AM 42.3217 -81.4172 94° East 433 498 25,000 120 Climbing Cleveland Center
10:35AM 42.3144 -81.2403 93° East 453 521 25,000  Level Cleveland Center
10:36AM 42.3050 -81.0633 94° East 467 537 25,000  Level Cleveland Center
10:37AM 42.2953 -80.8694 94° East 467 537 25,000  Level Cleveland Center
10:38AM 42.2850 -80.6897 94° East 475 547 25,000  Level Cleveland Center
10:39AM 42.2933 -80.5103 86° East 476 548 25,000  Level Cleveland Center
10:40AM 42.3119 -80.3278 82° East 481 554 25,000  Level Cleveland Center
10:41AM 42.3303 -80.1506 82° East 481 554 25,000  Level Cleveland Center
10:42AM 42.3461 -79.9736 83° East 481 554 25,000  Level Cleveland Center
10:43AM 42.3636 -79.7908 83° East 476 548 25,000  Level Cleveland Center
10:44AM 42.3789 -79.6133 83° East 481 554 25,000  Level Cleveland Center
10:45AM 42.3942 -79.4333 83° East 481 554 25,000  Level Cleveland Center
10:46AM 42.4108 -79.2531 83° East 481 554 25,000  Level Cleveland Center
10:47AM 42.4275 -79.0697 83° East 481 554 25,000  Level Cleveland Center
10:48AM 42.4378 -78.9261 84° East 481 554 25,000  Level Cleveland Center
10:49AM 42.4558 -78.7286 83° East 481 554 25,000  Level Cleveland Center
10:50AM 42.4714 -78.5481 83° East 481 554 25,000  Level Cleveland Center
10:51AM 42.4847 -78.3672 84° East 481 554 25,000  Level Cleveland Center
10:52AM 42.4981 -78.1894 84° East 481 554 25,000  Level Cleveland Center
10:53AM 42.5128 -78.0058 84° East 481 554 25,000  Level Cleveland Center
10:54AM 42.5253 -77.8278 84° East 481 554 25,000  Level Cleveland Center
10:55AM 42.5356 -77.6497 85° East 481 554 25,000  Level Cleveland Center
10:56AM 42.5511 -77.4517 84° East 481 554 25,000  Level Cleveland Center
10:57AM 42.5650 -77.2733 84° East 481 554 25,000  Level Cleveland Center
10:58AM 42.5764 -77.0950 85° East 481 554 25,000  Level Cleveland Center
11:00AM 42.5925 -76.8347 85° East 473 544 25,000  Level Boston Center
11:01AM 42.6056 -76.6550 84° East 473 544 25,000  Level Boston Center
11:02AM 42.6164 -76.4753 85° East 473 544 25,000  Level Boston Center
11:03AM 42.6256 -76.3344 85° East 473 544 25,000  Level Boston Center
11:04AM 42.6389 -76.1153 85° East 473 544 25,000  Level Boston Center
11:05AM 42.6489 -75.9378 86° East 473 544 25,000  Level Boston Center
11:06AM 42.6583 -75.7578 86° East 473 544 25,000  Level Boston Center
11:07AM 42.6675 -75.5803 86° East 473 544 25,000  Level Boston Center
11:08AM 42.6794 -75.3744 85° East 483 556 25,000  Level Boston Center
11:09AM 42.6878 -75.1997 86° East 478 550 25,000  Level Boston Center
11:10AM 42.6981 -75.0281 85° East 464 534 25,000  Level Boston Center
11:11AM 42.7042 -74.8472 87° East 464 534 25,000  Level Boston Center
11:12AM 42.7122 -74.6639 87° East 473 544 25,000  Level Boston Center
11:13AM 42.7197 -74.4861 87° East 473 544 25,000 -300 Level Boston Center
11:14AM 42.7269 -74.3083 87° East 473 544 24,500 -540 Descending Boston Center
11:15AM 42.7339 -74.1247 87° East 479 551 24,000 -540 Descending Boston Center
11:16AM 42.7425 -73.9469 86° East 479 551 23,500 -540 Descending Boston Center
11:17AM 42.7511 -73.7661 86° East 479 551 23,000 -480 Descending Boston Center
11:18AM 42.7572 -73.5911 87° East 469 540 22,600 -720 Descending Boston Center
11:19AM 42.7653 -73.4100 86° East 469 540 21,600 -960 Descending Boston Center
11:20AM 42.7686 -73.2319 88° East 474 545 20,700 -960 Descending Boston Center
11:21AM 42.7758 -73.0625 87° East 463 533 19,700 -900 Descending Boston Center
11:22AM 42.7789 -72.8928 89° East 456 525 19,000 -900 Descending Boston Center
11:23AM 42.7878 -72.7258 86° East 451 519 18,000 -1,800 Descending Boston Center
11:24AM 42.7942 -72.5617 87° East 440 506 15,500 -2,580 Descending Boston Center
11:25AM 42.8025 -72.4061 86° East 429 494 12,900 -2,340 Descending Boston Center
11:26AM 42.8067 -72.2731 88° East 391 450 10,800 -1,500 Descending Boston Center
11:27AM 42.8128 -72.1542 86° East 331 381 9,900 -900 Descending Boston Center
11:28AM 42.8186 -72.0381 86° East 301 346 9,000 -1,020 Descending Boston Center
11:29AM 42.8244 -71.9219 86° East 301 346 7,900 -1,680 Descending Boston Center
11:30AM 42.8322 -71.8144 84° East 295 339 5,800 -2,040 Descending Boston Center
11:31AM 42.8442 -71.7181 80° East 274 315 4,000 -1,440 Descending Boston Center
11:32AM 42.8561 -71.6328 79° East 242 278 2,900 -960 Descending Boston Center
11:33AM 42.8617 -71.5508 85° East 223 257 2,100 -840 Descending Boston Center
11:34AM 42.8883 -71.4992 55° Northeast 172 198 1,300 -780 Descending Boston Center
11:35AM 42.9194 -71.4619 41° Northeast 149 171 600 8,820 Descending Boston Center
11:36AM 42.9481 -71.4219 46° Northeast 143 165 19,000 9,240 Climbing Boston Center
11:37AM 42.9792 -71.3872 39° Northeast 143 165 19,000  Level Boston Center
11:38AM 43.0100 -71.3497 42° Northeast 143 165 19,000  Level Boston Center